Time;durP1;ratioP1;P1;durP2;ratioP2;P2;SDS_P1;SDS_P2;PMS_P1;PMS_P2;Temp;Humidity;BMP_temperature;BMP_pressure;BME280_temperature;BME280_humidity;BME280_pressure;Samples;Min_cycle;Max_cycle;Signal;HPM_P1;HPM_P2
2022/02/24 00:02:56;;;;;;;18.13;4.43;;;;;;;;;;6131811;23;20296;-85
2022/02/24 00:06:04;;;;;;;14.63;4.53;;;;;;;;;;6131672;23;20174;-86
2022/02/24 00:09:09;;;;;;;15.40;4.70;;;;;;;;;;6131579;23;20177;-86
2022/02/24 00:12:15;;;;;;;13.03;4.30;;;;;;;;;;6131567;23;20549;-87
2022/02/24 00:15:20;;;;;;;12.93;4.53;;;;;;;;;;6129843;23;20332;-87
2022/02/24 00:18:26;;;;;;;13.53;4.13;;;;;;;;;;6132143;23;20418;-85
2022/02/24 00:21:32;;;;;;;16.00;3.97;;;;;;;;;;6133806;23;20248;-87
2022/02/24 00:24:37;;;;;;;14.43;4.73;;;;;;;;;;6132440;23;20173;-87
2022/02/24 00:27:42;;;;;;;20.93;4.70;;;;;;;;;;6131284;23;20245;-87
2022/02/24 00:30:48;;;;;;;11.70;4.83;;;;;;;;;;6133511;23;20220;-86
2022/02/24 00:33:59;;;;;;;11.40;4.23;;;;;;;;;;6133373;23;20180;-86
2022/02/24 00:37:15;;;;;;;14.80;4.27;;;;;;;;;;6131389;23;20185;-86
2022/02/24 00:40:22;;;;;;;19.00;4.80;;;;;;;;;;6131843;23;20526;-86
2022/02/24 00:43:27;;;;;;;13.57;4.60;;;;;;;;;;6131318;23;20537;-86
2022/02/24 00:46:32;;;;;;;13.53;4.60;;;;;;;;;;6129774;23;20205;-86
2022/02/24 00:49:37;;;;;;;13.73;4.40;;;;;;;;;;6131540;23;20177;-87
2022/02/24 00:52:45;;;;;;;11.13;4.90;;;;;;;;;;6148534;23;20200;-85
2022/02/24 00:55:51;;;;;;;19.37;4.90;;;;;;;;;;6142972;23;20220;-85
2022/02/24 00:58:56;;;;;;;12.53;4.63;;;;;;;;;;6143310;23;20191;-85
2022/02/24 01:02:01;;;;;;;11.17;4.33;;;;;;;;;;6143259;23;20179;-86
2022/02/24 01:05:07;;;;;;;10.27;4.57;;;;;;;;;;6160208;23;20595;-86
2022/02/24 01:08:14;;;;;;;13.10;4.63;;;;;;;;;;6143082;23;20208;-87
2022/02/24 01:11:19;;;;;;;13.33;4.80;;;;;;;;;;6160910;23;20259;-86
2022/02/24 01:14:24;;;;;;;14.83;4.77;;;;;;;;;;6143172;23;20176;-86
2022/02/24 01:17:29;;;;;;;12.87;4.77;;;;;;;;;;6142813;23;20227;-86
2022/02/24 01:20:34;;;;;;;16.47;5.63;;;;;;;;;;6143004;23;20180;-86
2022/02/24 01:23:41;;;;;;;11.07;5.03;;;;;;;;;;6142711;23;20232;-87
2022/02/24 01:26:46;;;;;;;12.30;4.10;;;;;;;;;;6142182;23;20165;-86
2022/02/24 01:29:51;;;;;;;17.57;5.80;;;;;;;;;;6142753;23;20251;-84
2022/02/24 01:32:57;;;;;;;14.93;4.77;;;;;;;;;;6142492;23;20176;-86
2022/02/24 01:36:02;;;;;;;18.87;5.07;;;;;;;;;;6159845;23;20421;-87
2022/02/24 01:39:09;;;;;;;13.73;5.00;;;;;;;;;;6142555;23;20172;-87
2022/02/24 01:42:14;;;;;;;15.87;4.93;;;;;;;;;;6143035;23;20253;-86
2022/02/24 01:45:20;;;;;;;13.40;4.33;;;;;;;;;;6159288;23;20423;-86
2022/02/24 01:48:26;;;;;;;17.70;4.97;;;;;;;;;;6142504;23;20220;-87
2022/02/24 01:51:31;;;;;;;18.53;5.67;;;;;;;;;;6142185;23;20284;-87
2022/02/24 01:54:38;;;;;;;14.50;5.70;;;;;;;;;;6142580;23;20228;-86
2022/02/24 01:57:43;;;;;;;11.57;5.07;;;;;;;;;;6142845;23;20208;-86
2022/02/24 02:00:50;;;;;;;17.13;4.33;;;;;;;;;;6143141;23;20179;-86
2022/02/24 02:03:55;;;;;;;14.93;4.50;;;;;;;;;;6143282;23;20225;-85
2022/02/24 02:07:01;;;;;;;12.57;4.27;;;;;;;;;;6141688;23;20220;-86
2022/02/24 02:10:08;;;;;;;7.23;3.70;;;;;;;;;;6160581;23;20180;-85
2022/02/24 02:13:13;;;;;;;12.07;3.97;;;;;;;;;;6143389;23;20232;-86
2022/02/24 02:16:18;;;;;;;9.83;4.13;;;;;;;;;;6158930;23;20200;-84
2022/02/24 02:19:24;;;;;;;11.27;3.70;;;;;;;;;;6143502;23;20177;-85
2022/02/24 02:22:30;;;;;;;12.10;4.30;;;;;;;;;;6143063;23;20196;-86
2022/02/24 02:25:39;;;;;;;19.80;4.90;;;;;;;;;;6142288;23;20418;-86
2022/02/24 02:28:44;;;;;;;9.60;4.03;;;;;;;;;;6142358;23;20401;-86
2022/02/24 02:31:50;;;;;;;10.20;4.53;;;;;;;;;;6142442;23;20410;-86
2022/02/24 02:34:55;;;;;;;11.83;4.00;;;;;;;;;;6143010;23;20244;-86
2022/02/24 02:38:02;;;;;;;11.97;4.37;;;;;;;;;;6158727;23;20229;-86
2022/02/24 02:41:07;;;;;;;14.17;4.50;;;;;;;;;;6160216;23;20289;-86
2022/02/24 02:44:15;;;;;;;11.07;4.10;;;;;;;;;;6143218;23;20552;-86
2022/02/24 02:47:21;;;;;;;8.17;3.67;;;;;;;;;;6145258;23;20172;-87
2022/02/24 02:50:26;;;;;;;10.90;4.23;;;;;;;;;;6146843;23;20208;-88
2022/02/24 02:53:33;;;;;;;11.57;3.90;;;;;;;;;;6147458;23;20260;-85
2022/02/24 02:56:38;;;;;;;12.77;4.30;;;;;;;;;;6130524;23;20200;-87
2022/02/24 02:59:43;;;;;;;10.90;4.37;;;;;;;;;;6141461;23;20411;-86
2022/02/24 03:02:49;;;;;;;13.80;3.47;;;;;;;;;;6130638;23;20200;-87
2022/02/24 03:05:54;;;;;;;13.03;3.73;;;;;;;;;;6131627;23;20224;-86
2022/02/24 03:09:01;;;;;;;12.17;3.47;;;;;;;;;;6130699;23;20177;-86
2022/02/24 03:12:09;;;;;;;13.30;4.20;;;;;;;;;;6131755;23;20193;-85
2022/02/24 03:15:17;;;;;;;10.27;4.10;;;;;;;;;;6129400;23;20181;-86
2022/02/24 03:18:22;;;;;;;19.87;4.63;;;;;;;;;;6130593;23;20177;-86
2022/02/24 03:21:28;;;;;;;12.80;4.30;;;;;;;;;;6130745;23;20268;-85
2022/02/24 03:24:36;;;;;;;13.27;3.93;;;;;;;;;;6130103;23;20177;-85
2022/02/24 03:27:41;;;;;;;10.60;3.97;;;;;;;;;;6129537;23;20221;-85
2022/02/24 03:30:46;;;;;;;10.13;4.50;;;;;;;;;;6129312;23;20691;-86
2022/02/24 03:33:52;;;;;;;12.50;4.63;;;;;;;;;;6129785;23;20173;-86
2022/02/24 03:36:57;;;;;;;12.07;4.60;;;;;;;;;;6129472;23;20200;-86
2022/02/24 03:40:05;;;;;;;15.20;4.53;;;;;;;;;;6130050;23;20177;-86
2022/02/24 03:43:11;;;;;;;19.57;4.90;;;;;;;;;;6132074;23;20181;-86
2022/02/24 03:46:16;;;;;;;12.20;4.93;;;;;;;;;;6129216;23;20364;-86
2022/02/24 03:49:22;;;;;;;13.40;4.90;;;;;;;;;;6129492;23;20232;-86
2022/02/24 03:52:27;;;;;;;14.60;5.23;;;;;;;;;;6129779;23;20440;-86
2022/02/24 03:55:34;;;;;;;20.53;5.43;;;;;;;;;;6129342;23;20288;-86
2022/02/24 03:58:39;;;;;;;12.07;4.30;;;;;;;;;;6128983;23;20221;-86
2022/02/24 04:01:44;;;;;;;12.77;4.97;;;;;;;;;;6129400;23;20403;-86
2022/02/24 04:04:49;;;;;;;21.07;5.70;;;;;;;;;;6128900;23;20196;-86
2022/02/24 04:07:54;;;;;;;13.83;6.17;;;;;;;;;;6131723;23;20220;-85
2022/02/24 04:11:01;;;;;;;31.63;7.03;;;;;;;;;;6130998;23;20457;-86
2022/02/24 04:14:07;;;;;;;13.73;5.87;;;;;;;;;;6134440;23;20482;-86
2022/02/24 04:17:12;;;;;;;12.83;6.00;;;;;;;;;;6131809;23;20196;-86
2022/02/24 04:20:17;;;;;;;13.53;6.00;;;;;;;;;;6130965;23;20286;-84
2022/02/24 04:23:22;;;;;;;9.90;5.27;;;;;;;;;;6131664;23;20177;-86
2022/02/24 04:26:29;;;;;;;13.83;5.27;;;;;;;;;;6130454;23;20186;-86
2022/02/24 04:29:34;;;;;;;15.40;5.40;;;;;;;;;;6131189;23;20173;-86
2022/02/24 04:32:40;;;;;;;13.13;5.27;;;;;;;;;;6149151;23;20177;-85
2022/02/24 04:35:45;;;;;;;13.27;5.17;;;;;;;;;;6131065;23;20185;-85
2022/02/24 04:38:50;;;;;;;15.17;5.17;;;;;;;;;;6137876;23;20172;-85
2022/02/24 04:41:57;;;;;;;13.10;5.13;;;;;;;;;;6133563;23;20297;-85
2022/02/24 04:45:02;;;;;;;14.93;5.13;;;;;;;;;;6150926;23;20189;-86
2022/02/24 04:48:08;;;;;;;12.27;5.83;;;;;;;;;;6142161;23;20264;-84
2022/02/24 04:51:14;;;;;;;15.13;6.20;;;;;;;;;;6148894;23;20182;-86
2022/02/24 04:54:20;;;;;;;16.60;6.57;;;;;;;;;;6144996;23;20177;-86
2022/02/24 04:57:28;;;;;;;13.70;6.53;;;;;;;;;;6158358;23;20196;-85
2022/02/24 05:00:34;;;;;;;19.50;7.27;;;;;;;;;;6154478;23;20180;-86
2022/02/24 05:03:39;;;;;;;19.53;7.57;;;;;;;;;;6163993;23;20176;-85
2022/02/24 05:06:49;;;;;;;25.20;6.57;;;;;;;;;;6155672;23;20279;-84
2022/02/24 05:09:55;;;;;;;21.00;6.43;;;;;;;;;;6167723;23;20419;-85
2022/02/24 05:13:03;;;;;;;17.40;7.50;;;;;;;;;;6148640;23;20196;-86
2022/02/24 05:16:09;;;;;;;16.67;7.23;;;;;;;;;;6147032;23;20199;-86
2022/02/24 05:19:14;;;;;;;17.27;6.90;;;;;;;;;;6153563;23;20217;-87
2022/02/24 05:22:22;;;;;;;17.97;6.73;;;;;;;;;;6155253;23;20188;-85
2022/02/24 05:25:30;;;;;;;21.87;8.53;;;;;;;;;;6154792;23;20168;-85
2022/02/24 05:28:36;;;;;;;16.20;6.93;;;;;;;;;;6160970;23;20522;-84
2022/02/24 05:31:42;;;;;;;23.20;7.73;;;;;;;;;;6155075;23;20220;-86
2022/02/24 05:34:46;;;;;;;21.33;7.83;;;;;;;;;;6153520;23;20176;-85
2022/02/24 05:37:52;;;;;;;19.67;7.30;;;;;;;;;;6151231;23;20552;-85
2022/02/24 05:41:07;;;;;;;26.20;7.10;;;;;;;;;;6147409;23;20180;-86
2022/02/24 05:44:14;;;;;;;17.90;7.97;;;;;;;;;;6146327;23;20180;-85
2022/02/24 05:47:20;;;;;;;20.77;8.97;;;;;;;;;;6157841;23;20427;-85
2022/02/24 05:50:25;;;;;;;19.60;8.33;;;;;;;;;;6159528;23;20195;-85
2022/02/24 05:53:31;;;;;;;28.40;7.80;;;;;;;;;;6157921;23;20196;-84
2022/02/24 05:56:36;;;;;;;19.13;8.10;;;;;;;;;;6160011;23;20237;-84
2022/02/24 05:59:43;;;;;;;17.63;6.80;;;;;;;;;;6160606;23;20252;-86
2022/02/24 06:02:48;;;;;;;17.60;6.87;;;;;;;;;;6155996;23;20225;-85
2022/02/24 06:05:56;;;;;;;18.97;7.43;;;;;;;;;;6156755;23;20217;-84
2022/02/24 06:09:02;;;;;;;20.77;7.23;;;;;;;;;;6156734;23;20221;-85
2022/02/24 06:12:08;;;;;;;22.77;7.10;;;;;;;;;;6159246;23;20181;-86
2022/02/24 06:15:16;;;;;;;20.50;7.73;;;;;;;;;;6157509;23;20191;-87
2022/02/24 06:18:25;;;;;;;25.20;9.10;;;;;;;;;;6157009;23;20204;-87
2022/02/24 06:21:30;;;;;;;29.20;9.70;;;;;;;;;;6155014;23;20180;-86
2022/02/24 06:24:36;;;;;;;28.37;10.63;;;;;;;;;;6155707;23;20346;-87
2022/02/24 06:27:52;;;;;;;29.83;10.20;;;;;;;;;;6158087;23;20244;-87
2022/02/24 06:31:01;;;;;;;34.03;10.83;;;;;;;;;;6172733;23;20397;-87
2022/02/24 06:34:06;;;;;;;32.73;11.43;;;;;;;;;;6172940;23;20176;-86
2022/02/24 06:37:12;;;;;;;36.20;12.07;;;;;;;;;;6172081;23;20199;-86
2022/02/24 06:40:18;;;;;;;31.63;12.17;;;;;;;;;;6152837;23;20253;-87
2022/02/24 06:43:24;;;;;;;25.73;10.83;;;;;;;;;;6170523;23;20168;-86
2022/02/24 06:46:31;;;;;;;28.10;10.33;;;;;;;;;;6168376;23;20176;-86
2022/02/24 06:49:37;;;;;;;35.93;12.33;;;;;;;;;;6171499;23;20188;-87
2022/02/24 06:52:45;;;;;;;27.93;11.60;;;;;;;;;;6170639;23;20235;-85
2022/02/24 06:55:56;;;;;;;27.47;11.37;;;;;;;;;;6155271;23;20172;-85
2022/02/24 06:59:05;;;;;;;28.73;10.63;;;;;;;;;;6149933;23;20228;-88
2022/02/24 07:02:12;;;;;;;28.90;10.80;;;;;;;;;;6148262;23;20179;-87
2022/02/24 07:05:18;;;;;;;28.80;10.87;;;;;;;;;;6147556;23;20179;-87
2022/02/24 07:08:24;;;;;;;28.97;10.43;;;;;;;;;;6146065;23;20200;-86
2022/02/24 07:11:31;;;;;;;24.50;10.20;;;;;;;;;;6144769;23;20233;-85
2022/02/24 07:14:36;;;;;;;29.80;10.77;;;;;;;;;;6126421;23;20172;-88
2022/02/24 07:17:44;;;;;;;27.83;10.37;;;;;;;;;;6143851;23;20196;-88
2022/02/24 07:20:51;;;;;;;24.50;10.00;;;;;;;;;;6143623;23;20188;-86
2022/02/24 07:23:58;;;;;;;29.20;10.30;;;;;;;;;;6143545;23;20289;-87
2022/02/24 07:27:05;;;;;;;27.57;10.10;;;;;;;;;;6144006;23;20172;-87
2022/02/24 07:30:12;;;;;;;33.90;11.03;;;;;;;;;;6143938;23;20196;-86
2022/02/24 07:33:19;;;;;;;30.30;10.53;;;;;;;;;;6144022;23;20180;-85
2022/02/24 07:36:24;;;;;;;31.23;10.23;;;;;;;;;;6143685;23;20402;-85
2022/02/24 07:39:30;;;;;;;24.50;10.20;;;;;;;;;;6144275;23;20173;-87
2022/02/24 07:42:36;;;;;;;19.67;8.37;;;;;;;;;;6147145;23;20323;-86
2022/02/24 07:45:41;;;;;;;19.07;9.13;;;;;;;;;;6148062;23;20177;-86
2022/02/24 07:48:50;;;;;;;21.93;9.27;;;;;;;;;;6151112;23;20173;-85
2022/02/24 07:51:55;;;;;;;26.97;9.43;;;;;;;;;;6168225;23;20192;-87
2022/02/24 07:55:01;;;;;;;24.03;10.33;;;;;;;;;;6157540;23;20172;-85
2022/02/24 07:58:07;;;;;;;21.13;9.87;;;;;;;;;;6178930;23;20200;-86
2022/02/24 08:01:12;;;;;;;26.93;10.07;;;;;;;;;;6164465;23;20176;-87
2022/02/24 08:04:19;;;;;;;21.93;9.17;;;;;;;;;;6164864;23;20159;-86
2022/02/24 08:07:29;;;;;;;29.53;9.57;;;;;;;;;;6182166;23;20204;-85
2022/02/24 08:10:35;;;;;;;21.90;9.53;;;;;;;;;;6155600;23;20263;-86
2022/02/24 08:13:42;;;;;;;27.20;9.80;;;;;;;;;;6153622;23;20183;-85
2022/02/24 08:16:47;;;;;;;22.40;9.10;;;;;;;;;;6170002;23;20176;-85
2022/02/24 08:19:54;;;;;;;21.10;8.07;;;;;;;;;;6155592;23;20177;-86
2022/02/24 08:23:03;;;;;;;25.33;9.40;;;;;;;;;;6151759;23;20177;-87
2022/02/24 08:26:22;;;;;;;16.63;9.03;;;;;;;;;;6171827;23;20192;-84
2022/02/24 08:29:32;;;;;;;22.63;8.47;;;;;;;;;;6160798;23;20160;-86
2022/02/24 08:32:40;;;;;;;20.03;9.40;;;;;;;;;;6142834;23;20165;-89
2022/02/24 08:35:48;;;;;;;25.13;10.13;;;;;;;;;;6153940;23;20247;-85
2022/02/24 08:38:54;;;;;;;21.83;8.47;;;;;;;;;;6150021;23;20765;-86
2022/02/24 08:41:59;;;;;;;24.53;9.33;;;;;;;;;;6147695;23;20176;-86
2022/02/24 08:45:05;;;;;;;23.53;9.03;;;;;;;;;;6148323;23;20499;-85
2022/02/24 08:48:10;;;;;;;21.63;8.10;;;;;;;;;;6148967;23;20186;-86
2022/02/24 08:51:17;;;;;;;22.43;8.57;;;;;;;;;;6150006;23;20417;-87
2022/02/24 08:54:22;;;;;;;18.40;7.97;;;;;;;;;;6117688;23;20236;-87
2022/02/24 08:57:27;;;;;;;22.23;8.23;;;;;;;;;;6117890;23;20578;-85
2022/02/24 09:00:33;;;;;;;63.13;23.17;;;;;;;;;;6129578;23;20181;-85
2022/02/24 09:03:38;;;;;;;17.27;7.90;;;;;;;;;;6148882;23;20210;-85
2022/02/24 09:06:46;;;;;;;15.60;7.37;;;;;;;;;;6129076;23;20209;-86
2022/02/24 09:09:51;;;;;;;14.53;6.20;;;;;;;;;;6129727;23;20173;-85
2022/02/24 09:12:58;;;;;;;54.47;18.17;;;;;;;;;;6121855;23;20181;-87
2022/02/24 09:16:03;;;;;;;15.63;6.73;;;;;;;;;;6130115;23;20220;-87
2022/02/24 09:19:08;;;;;;;17.40;7.10;;;;;;;;;;6115310;23;20197;-87
2022/02/24 09:22:15;;;;;;;14.73;6.20;;;;;;;;;;6115137;23;20293;-86
2022/02/24 09:25:23;;;;;;;10.70;5.83;;;;;;;;;;6113841;23;20550;-86
2022/02/24 09:28:29;;;;;;;16.53;6.10;;;;;;;;;;6115300;23;20258;-85
2022/02/24 09:31:35;;;;;;;14.63;5.37;;;;;;;;;;6122126;23;20172;-86
2022/02/24 09:34:46;;;;;;;14.87;5.93;;;;;;;;;;6115662;23;20173;-87
2022/02/24 09:37:53;;;;;;;13.77;5.53;;;;;;;;;;6116081;23;20205;-87
2022/02/24 09:41:03;;;;;;;11.50;5.60;;;;;;;;;;6117125;23;20169;-85
2022/02/24 09:44:08;;;;;;;16.10;5.87;;;;;;;;;;6115164;23;20570;-86
2022/02/24 09:47:14;;;;;;;15.37;5.33;;;;;;;;;;6115847;23;20369;-86
2022/02/24 09:50:19;;;;;;;16.02;6.85;;;;;;;;;;6117786;23;20534;-87
2022/02/24 09:53:30;;;;;;;14.63;5.37;;;;;;;;;;6139337;23;20192;-87
2022/02/24 09:56:35;;;;;;;12.50;5.23;;;;;;;;;;6142557;23;20211;-86
2022/02/24 09:59:41;;;;;;;14.60;5.27;;;;;;;;;;6143763;23;20172;-87
2022/02/24 10:02:47;;;;;;;15.90;5.03;;;;;;;;;;6145832;23;20176;-88
2022/02/24 10:05:52;;;;;;;10.13;4.20;;;;;;;;;;6144118;23;20522;-88
2022/02/24 10:09:03;;;;;;;12.03;3.80;;;;;;;;;;6146265;23;20192;-87
2022/02/24 10:12:10;;;;;;;10.67;2.50;;;;;;;;;;6144318;23;20180;-87
2022/02/24 10:15:17;;;;;;;3.83;2.03;;;;;;;;;;6160354;23;20180;-86
2022/02/24 10:18:25;;;;;;;12.10;3.20;;;;;;;;;;6160261;23;20196;-85
2022/02/24 10:21:31;;;;;;;5.93;3.17;;;;;;;;;;6161068;23;20263;-86
2022/02/24 10:24:41;;;;;;;15.43;4.53;;;;;;;;;;6161546;23;20184;-84
2022/02/24 10:27:51;;;;;;;8.37;2.90;;;;;;;;;;6162362;23;20176;-86
2022/02/24 10:30:58;;;;;;;7.73;3.47;;;;;;;;;;6161765;23;20200;-87
2022/02/24 10:34:10;;;;;;;9.20;3.17;;;;;;;;;;6179297;23;20164;-86
2022/02/24 10:37:15;;;;;;;6.40;3.03;;;;;;;;;;6161576;23;20205;-87
2022/02/24 10:40:22;;;;;;;13.57;3.43;;;;;;;;;;6162627;23;20172;-85
2022/02/24 10:43:28;;;;;;;8.73;3.47;;;;;;;;;;6159293;23;20180;-87
2022/02/24 10:46:34;;;;;;;14.57;3.73;;;;;;;;;;6146132;23;20243;-86
2022/02/24 10:49:40;;;;;;;11.57;4.10;;;;;;;;;;6147536;23;20173;-86
2022/02/24 10:52:45;;;;;;;8.45;3.00;;;;;;;;;;6143983;23;20312;-86
2022/02/24 10:55:56;;;;;;;5.43;3.00;;;;;;;;;;6160612;23;20437;-87
2022/02/24 10:59:01;;;;;;;11.32;2.83;;;;;;;;;;6143101;23;20277;-86
2022/02/24 11:02:08;;;;;;;7.47;3.67;;;;;;;;;;6142271;23;20652;-85
2022/02/24 11:05:13;;;;;;;8.27;3.00;;;;;;;;;;6142898;23;20188;-85
2022/02/24 11:08:18;;;;;;;10.60;3.63;;;;;;;;;;6144456;23;20589;-86
2022/02/24 11:11:26;;;;;;;7.20;3.15;;;;;;;;;;6145461;23;20177;-87
2022/02/24 11:14:32;;;;;;;9.38;3.10;;;;;;;;;;6143675;23;20537;-88
2022/02/24 11:17:39;;;;;;;8.10;3.28;;;;;;;;;;6144842;23;20414;-87
2022/02/24 11:20:45;;;;;;;10.70;3.83;;;;;;;;;;6145668;23;20180;-88
2022/02/24 11:23:51;;;;;;;10.13;3.13;;;;;;;;;;6144677;23;20179;-87
2022/02/24 11:27:00;;;;;;;7.28;3.53;;;;;;;;;;6144181;23;20173;-87
2022/02/24 11:30:08;;;;;;;7.53;3.25;;;;;;;;;;6144432;23;20224;-85
2022/02/24 11:33:16;;;;;;;15.57;3.10;;;;;;;;;;6146798;23;20251;-85
2022/02/24 11:36:22;;;;;;;16.55;3.50;;;;;;;;;;6147119;23;20185;-87
2022/02/24 11:39:27;;;;;;;6.90;3.10;;;;;;;;;;6147601;23;20200;-87
2022/02/24 11:42:34;;;;;;;8.15;3.30;;;;;;;;;;6160169;23;20172;-87
2022/02/24 11:45:41;;;;;;;8.85;3.67;;;;;;;;;;6162769;23;20271;-86
2022/02/24 11:48:48;;;;;;;13.48;3.35;;;;;;;;;;6154496;23;20184;-89
2022/02/24 11:52:20;;;;;;;15.15;3.47;;;;;;;;;;6145756;23;20480;-88
2022/02/24 11:55:50;;;;;;;37.33;4.20;;;;;;;;;;6145256;23;20183;-87
2022/02/24 11:58:58;;;;;;;26.67;3.92;;;;;;;;;;6146904;23;20204;-88
2022/02/24 12:02:05;;;;;;;18.10;3.60;;;;;;;;;;6145224;23;20180;-88
2022/02/24 12:05:21;;;;;;;14.30;4.00;;;;;;;;;;6145999;23;20220;-88
2022/02/24 12:08:26;;;;;;;30.60;3.80;;;;;;;;;;6145055;23;20241;-88
2022/02/24 12:11:33;;;;;;;10.88;3.45;;;;;;;;;;6148341;23;20526;-89
2022/02/24 12:14:47;;;;;;;12.57;3.08;;;;;;;;;;6145058;23;20556;-88
2022/02/24 12:17:52;;;;;;;18.65;3.85;;;;;;;;;;6146184;23;20561;-89
2022/02/24 12:21:12;;;;;;;18.17;3.53;;;;;;;;;;6144932;23;20285;-88
2022/02/24 12:24:18;;;;;;;12.30;2.35;;;;;;;;;;6145020;23;20184;-89
2022/02/24 12:27:26;;;;;;;5.97;2.30;;;;;;;;;;6145031;23;20169;-88
2022/02/24 12:30:37;;;;;;;8.75;2.90;;;;;;;;;;6144887;23;20180;-88
2022/02/24 12:33:43;;;;;;;11.45;2.25;;;;;;;;;;6144298;23;20501;-88
2022/02/24 12:36:49;;;;;;;9.45;2.45;;;;;;;;;;6163506;23;20239;-88
2022/02/24 12:39:54;;;;;;;6.60;2.08;;;;;;;;;;6145062;23;20216;-89
2022/02/24 12:43:01;;;;;;;6.35;2.13;;;;;;;;;;6146176;23;20179;-88
2022/02/24 12:46:09;;;;;;;6.47;2.17;;;;;;;;;;6144778;23;20176;-86
2022/02/24 12:49:14;;;;;;;16.65;2.58;;;;;;;;;;6145216;23;20181;-87
2022/02/24 12:52:20;;;;;;;21.55;2.75;;;;;;;;;;6143465;23;20607;-86
2022/02/24 12:55:25;;;;;;;6.05;2.22;;;;;;;;;;6143547;23;20209;-88
2022/02/24 12:58:56;;;;;;;7.50;2.60;;;;;;;;;;6145110;23;20204;-86
2022/02/24 13:02:04;;;;;;;7.82;2.05;;;;;;;;;;6146496;23;20180;-87
2022/02/24 13:05:12;;;;;;;5.75;2.10;;;;;;;;;;6146980;23;20514;-87
2022/02/24 13:11:43;;;;;;;6.22;1.90;;;;;;;;;;6160865;23;20171;-87
2022/02/24 13:14:49;;;;;;;6.18;2.70;;;;;;;;;;6144420;23;20220;-87
2022/02/24 13:17:57;;;;;;;4.75;1.67;;;;;;;;;;6163362;23;20172;-87
2022/02/24 13:21:03;;;;;;;7.63;1.95;;;;;;;;;;6164345;23;20226;-86
2022/02/24 13:24:09;;;;;;;5.50;1.60;;;;;;;;;;6157089;23;20176;-87
2022/02/24 13:27:18;;;;;;;6.72;1.77;;;;;;;;;;6157121;23;20180;-86
2022/02/24 13:30:27;;;;;;;6.68;1.80;;;;;;;;;;6156544;23;20204;-85
2022/02/24 13:33:35;;;;;;;5.05;1.83;;;;;;;;;;6158124;23;20197;-86
2022/02/24 13:36:42;;;;;;;5.95;1.70;;;;;;;;;;6150551;23;20332;-88
2022/02/24 13:39:51;;;;;;;4.07;1.92;;;;;;;;;;6144454;23;20188;-87
2022/02/24 13:43:03;;;;;;;3.22;1.60;;;;;;;;;;6143857;23;20517;-87
2022/02/24 13:46:09;;;;;;;5.88;1.75;;;;;;;;;;6146485;23;20387;-89
2022/02/24 13:49:18;;;;;;;8.05;1.80;;;;;;;;;;6146274;23;20219;-87
2022/02/24 13:52:24;;;;;;;3.70;1.73;;;;;;;;;;6143845;23;20259;-87
2022/02/24 13:55:31;;;;;;;4.97;1.63;;;;;;;;;;6144206;23;20176;-87
2022/02/24 13:58:37;;;;;;;3.40;1.52;;;;;;;;;;6143970;23;20192;-88
2022/02/24 14:01:43;;;;;;;8.27;1.63;;;;;;;;;;6145683;23;20184;-87
2022/02/24 14:04:50;;;;;;;15.90;3.40;;;;;;;;;;6144672;23;20273;-87
2022/02/24 14:07:59;;;;;;;9.93;2.58;;;;;;;;;;6143340;23;20192;-88
2022/02/24 14:14:26;;;;;;;5.22;1.50;;;;;;;;;;6146063;23;20219;-88
2022/02/24 14:17:32;;;;;;;20.13;1.77;;;;;;;;;;6143607;23;20585;-87
2022/02/24 14:20:41;;;;;;;2.63;1.20;;;;;;;;;;6143392;23;20196;-87
2022/02/24 14:23:46;;;;;;;6.65;1.58;;;;;;;;;;6160507;23;20208;-88
2022/02/24 14:26:52;;;;;;;4.60;1.50;;;;;;;;;;6142778;23;20176;-87
2022/02/24 14:29:58;;;;;;;8.00;1.58;;;;;;;;;;6146064;23;20246;-86
2022/02/24 14:33:04;;;;;;;9.68;2.15;;;;;;;;;;6149044;23;20189;-88
2022/02/24 14:36:13;;;;;;;9.02;2.08;;;;;;;;;;6145479;23;20237;-89
2022/02/24 14:39:19;;;;;;;5.50;1.52;;;;;;;;;;6148032;23;20180;-87
2022/02/24 14:42:28;;;;;;;5.90;1.40;;;;;;;;;;6150408;23;20228;-88
2022/02/24 14:45:34;;;;;;;4.93;1.52;;;;;;;;;;6126179;23;20289;-87
2022/02/24 14:48:39;;;;;;;7.28;1.70;;;;;;;;;;6144072;23;20172;-85
2022/02/24 14:51:46;;;;;;;7.43;1.38;;;;;;;;;;6143288;23;20183;-86
2022/02/24 14:54:51;;;;;;;4.55;1.77;;;;;;;;;;6143656;23;20168;-87
2022/02/24 14:57:57;;;;;;;3.85;1.23;;;;;;;;;;6142857;23;20208;-89
2022/02/24 15:01:07;;;;;;;5.15;1.50;;;;;;;;;;6143469;23;20173;-88
2022/02/24 15:04:14;;;;;;;4.18;1.80;;;;;;;;;;6163357;23;20488;-88
2022/02/24 15:07:22;;;;;;;3.08;1.40;;;;;;;;;;6143020;23;20584;-89
2022/02/24 15:10:30;;;;;;;8.82;1.70;;;;;;;;;;6143982;23;20196;-88
2022/02/24 15:13:36;;;;;;;11.98;2.80;;;;;;;;;;6144082;23;20173;-88
2022/02/24 15:16:41;;;;;;;4.32;1.52;;;;;;;;;;6142817;23;20176;-87
2022/02/24 15:19:47;;;;;;;4.15;1.55;;;;;;;;;;6143639;23;20621;-87
2022/02/24 15:22:55;;;;;;;9.52;1.70;;;;;;;;;;6160180;23;20181;-87
2022/02/24 15:26:00;;;;;;;2.50;1.30;;;;;;;;;;6142572;23;20188;-87
2022/02/24 15:29:08;;;;;;;4.07;1.60;;;;;;;;;;6143040;23;20200;-87
2022/02/24 15:32:13;;;;;;;7.07;1.58;;;;;;;;;;6145506;23;20180;-88
2022/02/24 15:35:21;;;;;;;5.97;1.30;;;;;;;;;;6143514;23;20312;-87
2022/02/24 15:38:29;;;;;;;5.22;1.40;;;;;;;;;;6144128;23;20626;-87
2022/02/24 15:41:34;;;;;;;3.97;1.70;;;;;;;;;;6143079;23;20577;-87
2022/02/24 15:44:42;;;;;;;6.22;1.95;;;;;;;;;;6148116;23;20172;-87
2022/02/24 15:47:47;;;;;;;3.63;1.67;;;;;;;;;;6153780;23;20157;-86
2022/02/24 15:50:53;;;;;;;4.13;1.70;;;;;;;;;;6159978;23;20220;-86
2022/02/24 15:54:01;;;;;;;7.38;1.98;;;;;;;;;;6177863;23;20212;-87
2022/02/24 15:57:06;;;;;;;5.97;1.90;;;;;;;;;;6153971;23;20208;-88
2022/02/24 16:00:19;;;;;;;6.13;2.10;;;;;;;;;;6159763;23;20376;-87
2022/02/24 16:03:24;;;;;;;9.52;2.20;;;;;;;;;;6144426;23;20263;-87
2022/02/24 16:06:31;;;;;;;6.13;2.63;;;;;;;;;;6145191;23;20184;-88
2022/02/24 16:09:38;;;;;;;4.60;2.33;;;;;;;;;;6145593;23;20244;-87
2022/02/24 16:12:44;;;;;;;6.65;2.15;;;;;;;;;;6144803;23;20215;-86
2022/02/24 16:15:50;;;;;;;4.57;2.03;;;;;;;;;;6144182;23;20176;-88
2022/02/24 16:18:55;;;;;;;5.82;2.15;;;;;;;;;;6144633;23;20572;-87
2022/02/24 16:22:01;;;;;;;6.80;2.42;;;;;;;;;;6145858;23;20176;-88
2022/02/24 16:25:09;;;;;;;7.82;2.70;;;;;;;;;;6127675;23;20176;-87
2022/02/24 16:28:15;;;;;;;22.38;9.90;;;;;;;;;;6162291;23;20223;-87
2022/02/24 16:31:31;;;;;;;23.30;11.38;;;;;;;;;;6147956;23;20172;-88
2022/02/24 16:34:36;;;;;;;16.33;5.32;;;;;;;;;;6147436;23;20212;-86
2022/02/24 16:37:43;;;;;;;14.23;4.15;;;;;;;;;;6145734;23;20255;-88
2022/02/24 16:40:50;;;;;;;9.55;3.63;;;;;;;;;;6145063;23;20297;-87
2022/02/24 16:43:56;;;;;;;7.05;3.08;;;;;;;;;;6144049;23;20224;-87
2022/02/24 16:47:02;;;;;;;9.20;3.40;;;;;;;;;;6144109;23;20181;-88
2022/02/24 16:50:09;;;;;;;8.27;4.18;;;;;;;;;;6144669;23;20211;-89
2022/02/24 16:53:15;;;;;;;9.45;4.28;;;;;;;;;;6132233;23;20193;-88
2022/02/24 16:56:22;;;;;;;10.20;3.75;;;;;;;;;;6131770;23;20184;-88
2022/02/24 16:59:29;;;;;;;13.60;3.95;;;;;;;;;;6132253;23;20169;-87
2022/02/24 17:02:35;;;;;;;16.63;4.10;;;;;;;;;;6132990;23;20201;-88
2022/02/24 17:05:40;;;;;;;15.32;5.00;;;;;;;;;;6133027;23;20213;-88
2022/02/24 17:08:46;;;;;;;17.48;5.97;;;;;;;;;;6131778;23;20256;-88
2022/02/24 17:11:53;;;;;;;20.33;8.02;;;;;;;;;;6132577;23;20173;-89
2022/02/24 17:14:59;;;;;;;19.13;9.50;;;;;;;;;;6131182;23;20502;-88
2022/02/24 17:18:05;;;;;;;12.13;5.57;;;;;;;;;;6131710;23;20172;-89
2022/02/24 17:21:10;;;;;;;14.57;6.30;;;;;;;;;;6132030;23;20232;-89
2022/02/24 17:24:16;;;;;;;18.20;7.63;;;;;;;;;;6131815;23;20172;-87
2022/02/24 17:27:23;;;;;;;21.25;6.70;;;;;;;;;;6131391;23;20173;-88
2022/02/24 17:30:29;;;;;;;11.13;4.80;;;;;;;;;;6132278;23;20197;-88
2022/02/24 17:33:34;;;;;;;13.20;5.22;;;;;;;;;;6131944;23;20238;-88
2022/02/24 17:36:42;;;;;;;16.35;6.40;;;;;;;;;;6133014;23;20205;-88
2022/02/24 17:39:47;;;;;;;15.15;6.70;;;;;;;;;;6132884;23;20429;-87
2022/02/24 17:42:54;;;;;;;22.52;6.80;;;;;;;;;;6133694;23;20181;-88
2022/02/24 17:46:01;;;;;;;14.95;6.13;;;;;;;;;;6131827;23;20192;-87
2022/02/24 17:49:07;;;;;;;19.02;6.68;;;;;;;;;;6114462;23;20172;-88
2022/02/24 17:52:14;;;;;;;16.60;6.83;;;;;;;;;;6137510;23;20199;-87
2022/02/24 17:55:19;;;;;;;18.83;7.40;;;;;;;;;;6144061;23;20180;-87
2022/02/24 17:58:28;;;;;;;20.80;7.10;;;;;;;;;;6147735;23;20203;-87
2022/02/24 18:01:34;;;;;;;16.20;6.03;;;;;;;;;;6145981;23;20168;-86
2022/02/24 18:04:39;;;;;;;14.57;6.00;;;;;;;;;;6144364;23;20176;-87
2022/02/24 18:07:46;;;;;;;15.23;5.97;;;;;;;;;;6144178;23;20414;-87
2022/02/24 18:10:57;;;;;;;14.23;6.10;;;;;;;;;;6144007;23;20212;-86
2022/02/24 18:14:04;;;;;;;14.03;5.30;;;;;;;;;;6143841;23;20208;-89
2022/02/24 18:17:09;;;;;;;12.87;5.57;;;;;;;;;;6143381;23;20304;-86
2022/02/24 18:20:15;;;;;;;11.07;5.27;;;;;;;;;;6145560;23;20196;-87
2022/02/24 18:23:20;;;;;;;15.30;5.90;;;;;;;;;;6144133;23;20223;-87
2022/02/24 18:26:26;;;;;;;14.70;5.77;;;;;;;;;;6143541;23;20172;-88
2022/02/24 18:29:33;;;;;;;19.23;6.17;;;;;;;;;;6144114;23;20181;-87
2022/02/24 18:32:39;;;;;;;36.10;12.53;;;;;;;;;;6143848;23;20172;-87
2022/02/24 18:35:47;;;;;;;21.47;8.70;;;;;;;;;;6144068;23;20236;-87